Time;durP1;ratioP1;P1;durP2;ratioP2;P2;SDS_P1;SDS_P2;PMS_P1;PMS_P2;Temp;Humidity;BMP_temperature;BMP_pressure;BME280_temperature;BME280_humidity;BME280_pressure;Samples;Min_cycle;Max_cycle;Signal;HPM_P1;HPM_P2
2023/03/21 00:09:19;;;;;;;21.5;16.5;;;;;;;9.6;86.7;98720;;;;
2023/03/21 00:20:19;;;;;;;21.5;16.5;;;;;;;9.6;86.7;98710;;;;
2023/03/21 00:31:19;;;;;;;19.5;15.9;;;;;;;9.6;86.8;98710;;;;
2023/03/21 00:42:19;;;;;;;19.5;15.9;;;;;;;9.5;87;98700;;;;
2023/03/21 00:52:19;;;;;;;19.5;15.9;;;;;;;9.3;87.6;98690;;;;
2023/03/21 01:03:19;;;;;;;20.6;16.3;;;;;;;9.2;87.8;98690;;;;
2023/03/21 01:13:19;;;;;;;20.6;16.3;;;;;;;9.2;87.9;98690;;;;
2023/03/21 01:24:19;;;;;;;20.6;16.3;;;;;;;9.2;87.8;98690;;;;
2023/03/21 01:35:19;;;;;;;20.5;16.6;;;;;;;9.4;87.5;98690;;;;
2023/03/21 01:46:20;;;;;;;20.5;16.6;;;;;;;9.4;87.1;98680;;;;
2023/03/21 01:57:19;;;;;;;17.3;14.5;;;;;;;9.6;86.9;98680;;;;
2023/03/21 02:07:22;;;;;;;17.3;14.5;;;;;;;9.7;86.4;98680;;;;
2023/03/21 02:18:19;;;;;;;17.3;14.5;;;;;;;9.8;85.9;98680;;;;
2023/03/21 02:28:19;;;;;;;17.6;14.5;;;;;;;9.9;85.3;98680;;;;
2023/03/21 02:38:19;;;;;;;17.6;14.5;;;;;;;9.8;85.3;98680;;;;
2023/03/21 02:48:19;;;;;;;17.6;14.5;;;;;;;9.7;86.3;98680;;;;
2023/03/21 02:59:19;;;;;;;21.3;17.2;;;;;;;9.6;87;98680;;;;
2023/03/21 03:09:19;;;;;;;21.3;17.2;;;;;;;9.5;87.8;98680;;;;
2023/03/21 03:19:19;;;;;;;21.3;17.2;;;;;;;9.2;89.2;98680;;;;
2023/03/21 03:30:19;;;;;;;29.9;24.4;;;;;;;9.3;89.5;98680;;;;
2023/03/21 03:41:19;;;;;;;29.9;24.4;;;;;;;9.2;90.1;98690;;;;
2023/03/21 03:52:19;;;;;;;29.9;24.4;;;;;;;9.2;90.1;98690;;;;
2023/03/21 04:03:19;;;;;;;27.5;23.7;;;;;;;9.2;89.9;98690;;;;
2023/03/21 04:13:19;;;;;;;27.5;23.7;;;;;;;9.2;89.8;98690;;;;
2023/03/21 04:23:19;;;;;;;27.5;23.7;;;;;;;9.2;89.8;98680;;;;
2023/03/21 04:33:19;;;;;;;28.9;23.7;;;;;;;9.2;89.3;98680;;;;
2023/03/21 04:44:19;;;;;;;28.9;23.7;;;;;;;9;88.9;98680;;;;
2023/03/21 04:54:19;;;;;;;28.9;23.7;;;;;;;9;88.8;98680;;;;
2023/03/21 05:05:19;;;;;;;21.4;17.8;;;;;;;9.1;88.5;98690;;;;
2023/03/21 05:16:19;;;;;;;21.4;17.8;;;;;;;9;88.5;98690;;;;
2023/03/21 05:26:19;;;;;;;21.4;17.8;;;;;;;8.8;88.4;98690;;;;
2023/03/21 05:36:19;;;;;;;18.4;13;;;;;;;8.8;88.1;98700;;;;
2023/03/21 05:47:19;;;;;;;18.4;13;;;;;;;8.9;87.8;98710;;;;
2023/03/21 05:57:19;;;;;;;11.6;7.8;;;;;;;9;87.6;98720;;;;
2023/03/21 06:07:20;;;;;;;11.6;7.8;;;;;;;9.1;87.3;98720;;;;
2023/03/21 06:18:19;;;;;;;11.6;7.8;;;;;;;9.4;87;98710;;;;
2023/03/21 06:29:19;;;;;;;9.4;6.1;;;;;;;9.4;86.3;98720;;;;
2023/03/21 06:40:19;;;;;;;9.4;6.1;;;;;;;9.6;85.6;98720;;;;
2023/03/21 06:50:19;;;;;;;9.4;6.1;;;;;;;9.7;85.5;98720;;;;
2023/03/21 07:01:19;;;;;;;6.7;4.3;;;;;;;10;84.6;98730;;;;
2023/03/21 07:11:19;;;;;;;6.7;4.3;;;;;;;10.3;83.9;98730;;;;
2023/03/21 07:22:19;;;;;;;6.7;4.3;;;;;;;10.8;83.1;98730;;;;
2023/03/21 07:32:19;;;;;;;8;5;;;;;;;11;81.3;98720;;;;
2023/03/21 07:42:19;;;;;;;8;5;;;;;;;11.1;80.9;98720;;;;
2023/03/21 07:53:19;;;;;;;8;5;;;;;;;11.2;79.7;98720;;;;
2023/03/21 08:03:20;;;;;;;8;5.2;;;;;;;11.5;79.6;98720;;;;
2023/03/21 08:13:19;;;;;;;8;5.2;;;;;;;12.3;78.3;98720;;;;
2023/03/21 08:24:19;;;;;;;8;5.2;;;;;;;12.2;75.9;98730;;;;
2023/03/21 08:35:19;;;;;;;8.5;5.7;;;;;;;11.7;76.6;98730;;;;
2023/03/21 08:46:19;;;;;;;8.5;5.7;;;;;;;11.5;77.8;98750;;;;
2023/03/21 08:56:19;;;;;;;8.5;5.7;;;;;;;11.2;78.9;98750;;;;
2023/03/21 09:07:19;;;;;;;10.6;8.6;;;;;;;11.4;78.6;98760;;;;
2023/03/21 09:18:21;;;;;;;10.6;8.6;;;;;;;11.5;79.2;98760;;;;
2023/03/21 09:28:19;;;;;;;14.7;10.9;;;;;;;11.6;79.2;98760;;;;
2023/03/21 09:38:19;;;;;;;14.7;10.9;;;;;;;11.6;79.6;98770;;;;
2023/03/21 09:48:29;;;;;;;14.7;10.9;;;;;;;12.2;77.7;98770;;;;
2023/03/21 09:58:19;;;;;;;14.8;12.5;;;;;;;12.3;77.7;98770;;;;
2023/03/21 10:08:21;;;;;;;14.8;12.5;;;;;;;12.4;77.9;98770;;;;
2023/03/21 10:19:19;;;;;;;14.8;12.5;;;;;;;12.1;76.8;98770;;;;
2023/03/21 10:29:21;;;;;;;17.6;13.5;;;;;;;12.2;75.5;98770;;;;
2023/03/21 10:40:20;;;;;;;17.6;13.5;;;;;;;12.4;76.5;98770;;;;
2023/03/21 10:51:19;;;;;;;17.6;13.5;;;;;;;12.1;76.7;98770;;;;
2023/03/21 11:01:20;;;;;;;19.7;14.4;;;;;;;12.4;75.4;98770;;;;
2023/03/21 11:12:20;;;;;;;19.7;14.4;;;;;;;12.6;74.2;98770;;;;
2023/03/21 11:22:19;;;;;;;19.7;14.4;;;;;;;12.4;74.5;98770;;;;
2023/03/21 11:33:19;;;;;;;17.4;14.5;;;;;;;12.6;73;98760;;;;
2023/03/21 11:44:19;;;;;;;17.4;14.5;;;;;;;12.3;72.3;98750;;;;
2023/03/21 11:54:19;;;;;;;17.4;14.5;;;;;;;12.4;72.1;98750;;;;
2023/03/21 12:04:19;;;;;;;18.4;16.2;;;;;;;12;73;98750;;;;
2023/03/21 12:14:19;;;;;;;18.4;16.2;;;;;;;12.3;72.9;98740;;;;
2023/03/21 12:25:19;;;;;;;18.4;16.2;;;;;;;11.7;73.7;98740;;;;
2023/03/21 12:35:20;;;;;;;25.6;20.2;;;;;;;11.6;75.1;98730;;;;
2023/03/21 12:46:19;;;;;;;25.6;20.2;;;;;;;11.8;75.5;98730;;;;
2023/03/21 12:57:20;;;;;;;30.7;23.3;;;;;;;11.9;76.2;98730;;;;
2023/03/21 13:08:19;;;;;;;30.7;23.3;;;;;;;11.9;76.1;98720;;;;
2023/03/21 13:18:19;;;;;;;30.7;23.3;;;;;;;11.6;77.1;98710;;;;
2023/03/21 13:29:19;;;;;;;27;23.4;;;;;;;12;76.2;98700;;;;
2023/03/21 13:40:19;;;;;;;27;23.4;;;;;;;12.3;75.2;98700;;;;
2023/03/21 13:50:20;;;;;;;27;23.4;;;;;;;12.1;74.3;98700;;;;
2023/03/21 14:01:19;;;;;;;28.7;21.7;;;;;;;11.8;74.9;98700;;;;
2023/03/21 14:11:20;;;;;;;28.7;21.7;;;;;;;11.5;76.5;98700;;;;
2023/03/21 14:22:19;;;;;;;28.7;21.7;;;;;;;11;79.2;98710;;;;
2023/03/21 14:33:19;;;;;;;25.9;21.4;;;;;;;10.6;82.2;98710;;;;
2023/03/21 14:44:24;;;;;;;25.9;21.4;;;;;;;10.2;84.8;98710;;;;
2023/03/21 14:55:19;;;;;;;25.9;21.4;;;;;;;10.1;85.5;98710;;;;
2023/03/21 15:05:19;;;;;;;33.3;27.1;;;;;;;10.4;85.6;98700;;;;
2023/03/21 15:16:19;;;;;;;33.3;27.1;;;;;;;10.7;85.3;98700;;;;
2023/03/21 15:27:19;;;;;;;37.3;28.7;;;;;;;11;84.1;98690;;;;
2023/03/21 15:38:19;;;;;;;37.3;28.7;;;;;;;10.7;83.1;98690;;;;
2023/03/21 15:48:19;;;;;;;37.3;28.7;;;;;;;10.7;83.3;98690;;;;
2023/03/21 15:59:19;;;;;;;30.9;25.5;;;;;;;10.6;83.2;98690;;;;
2023/03/21 16:09:22;;;;;;;30.9;25.5;;;;;;;10.5;83.4;98700;;;;
2023/03/21 16:19:19;;;;;;;30.9;25.5;;;;;;;10.4;83.5;98700;;;;
2023/03/21 16:30:19;;;;;;;31.5;26.2;;;;;;;10.3;83.5;98700;;;;
2023/03/21 16:40:19;;;;;;;31.5;26.2;;;;;;;10.2;84;98700;;;;
2023/03/21 16:51:20;;;;;;;31.5;26.2;;;;;;;10.3;83.6;98700;;;;
2023/03/21 17:01:19;;;;;;;38.1;29.7;;;;;;;10.3;83.2;98700;;;;
2023/03/21 17:11:20;;;;;;;38.1;29.7;;;;;;;10;82.9;98710;;;;
2023/03/21 17:22:19;;;;;;;38.1;29.7;;;;;;;9.9;82.9;98710;;;;
2023/03/21 17:33:19;;;;;;;40.5;28.6;;;;;;;9.7;82.7;98720;;;;
2023/03/21 17:43:19;;;;;;;40.5;28.6;;;;;;;9.6;83.2;98730;;;;
2023/03/21 17:53:21;;;;;;;40.5;28.6;;;;;;;9.6;83.7;98730;;;;
2023/03/21 18:04:19;;;;;;;44.5;34.5;;;;;;;9.5;84.1;98730;;;;
2023/03/21 18:14:20;;;;;;;44.5;34.5;;;;;;;9.4;85.4;98740;;;;
2023/03/21 18:25:19;;;;;;;44.5;34.5;;;;;;;9.4;85.5;98750;;;;
2023/03/21 18:36:20;;;;;;;43.8;34.6;;;;;;;9.4;85.8;98740;;;;
2023/03/21 18:47:19;;;;;;;43.8;34.6;;;;;;;9.3;86.6;98750;;;;
2023/03/21 18:57:20;;;;;;;46;38.9;;;;;;;9.4;86.5;98750;;;;
2023/03/21 19:08:20;;;;;;;46;38.9;;;;;;;9.3;86.5;98740;;;;
2023/03/21 19:19:20;;;;;;;46;38.9;;;;;;;9.2;86.6;98750;;;;
2023/03/21 19:29:20;;;;;;;54.2;46;;;;;;;9.2;87;98750;;;;
2023/03/21 19:40:20;;;;;;;54.2;46;;;;;;;9.2;86.8;98750;;;;
2023/03/21 19:50:19;;;;;;;54.2;46;;;;;;;9.2;86.9;98760;;;;
2023/03/21 20:01:20;;;;;;;51.9;41.6;;;;;;;9.2;86.7;98760;;;;
2023/03/21 20:11:20;;;;;;;51.9;41.6;;;;;;;9.2;86.5;98760;;;;
2023/03/21 20:22:19;;;;;;;51.9;41.6;;;;;;;9.1;86.7;98760;;;;
2023/03/21 20:32:19;;;;;;;54.1;43.1;;;;;;;9.1;86.5;98760;;;;
2023/03/21 20:42:20;;;;;;;54.1;43.1;;;;;;;9;86.4;98760;;;;
2023/03/21 20:53:20;;;;;;;54.1;43.1;;;;;;;9;86.7;98760;;;;
2023/03/21 21:04:20;;;;;;;54.5;43.3;;;;;;;9;86.7;98750;;;;
2023/03/21 21:14:19;;;;;;;54.5;43.3;;;;;;;8.9;86.7;98760;;;;
2023/03/21 21:25:19;;;;;;;54.5;43.3;;;;;;;8.8;86.8;98750;;;;
2023/03/21 21:36:19;;;;;;;53.5;42.8;;;;;;;8.9;87.3;98750;;;;
2023/03/21 21:46:19;;;;;;;53.5;42.8;;;;;;;8.8;87;98760;;;;
2023/03/21 21:57:21;;;;;;;49.5;37.9;;;;;;;8.7;87;98750;;;;
2023/03/21 22:07:20;;;;;;;49.5;37.9;;;;;;;8.7;86.8;98750;;;;
2023/03/21 22:18:19;;;;;;;49.5;37.9;;;;;;;8.7;86.6;98750;;;;
2023/03/21 22:28:20;;;;;;;54.1;43.4;;;;;;;8.6;87.5;98750;;;;
2023/03/21 22:39:22;;;;;;;54.1;43.4;;;;;;;8.5;88;98740;;;;
2023/03/21 22:49:19;;;;;;;54.1;43.4;;;;;;;8.5;88;98740;;;;
2023/03/21 23:00:19;;;;;;;57.3;44.4;;;;;;;8.6;87.8;98740;;;;
2023/03/21 23:11:20;;;;;;;57.3;44.4;;;;;;;8.6;87.8;98730;;;;
2023/03/21 23:22:19;;;;;;;57.3;44.4;;;;;;;8.4;88.3;98730;;;;
2023/03/21 23:32:20;;;;;;;62.6;46.1;;;;;;;8.4;88.2;98730;;;;
2023/03/21 23:42:20;;;;;;;62.6;46.1;;;;;;;8.4;87.9;98730;;;;
2023/03/21 23:53:19;;;;;;;58;44.3;;;;;;;8.2;88.1;98720;;;;
